sensor_id;sensor_type;location;lat;lon;timestamp;pressure;altitude;pressure_sealevel;temperature;humidity
68525;BME280;55524;51.380;13.372;2022-12-18T00:03:38;102283.88;;;-8.09;100.00
68525;BME280;55524;51.380;13.372;2022-12-18T00:06:21;102290.84;;;-8.20;100.00
68525;BME280;55524;51.380;13.372;2022-12-18T00:08:54;102295.97;;;-8.20;100.00
68525;BME280;55524;51.380;13.372;2022-12-18T00:11:27;102289.28;;;-8.18;100.00
68525;BME280;55524;51.380;13.372;2022-12-18T00:14:12;102300.34;;;-8.19;100.00
68525;BME280;55524;51.380;13.372;2022-12-18T00:16:47;102302.44;;;-8.38;100.00
68525;BME280;55524;51.380;13.372;2022-12-18T00:19:33;102307.97;;;-8.57;100.00
68525;BME280;55524;51.380;13.372;2022-12-18T00:22:34;102307.56;;;-8.38;100.00
68525;BME280;55524;51.380;13.372;2022-12-18T00:25:27;102309.03;;;-8.42;100.00
68525;BME280;55524;51.380;13.372;2022-12-18T00:27:56;102308.59;;;-8.48;100.00
68525;BME280;55524;51.380;13.372;2022-12-18T00:30:46;102321.66;;;-8.57;100.00
68525;BME280;55524;51.380;13.372;2022-12-18T00:33:41;102320.47;;;-8.74;100.00
68525;BME280;55524;51.380;13.372;2022-12-18T00:36:27;102328.16;;;-8.74;100.00
68525;BME280;55524;51.380;13.372;2022-12-18T00:39:03;102327.16;;;-8.87;100.00
68525;BME280;55524;51.380;13.372;2022-12-18T00:41:41;102328.06;;;-8.99;100.00
68525;BME280;55524;51.380;13.372;2022-12-18T00:44:32;102326.75;;;-9.17;100.00
68525;BME280;55524;51.380;13.372;2022-12-18T00:47:48;102333.41;;;-9.43;100.00
68525;BME280;55524;51.380;13.372;2022-12-18T00:50:53;102328.72;;;-9.48;100.00
68525;BME280;55524;51.380;13.372;2022-12-18T00:53:42;102330.28;;;-9.62;100.00
68525;BME280;55524;51.380;13.372;2022-12-18T00:56:17;102335.38;;;-9.74;100.00
68525;BME280;55524;51.380;13.372;2022-12-18T00:59:10;102331.88;;;-9.86;100.00
68525;BME280;55524;51.380;13.372;2022-12-18T01:01:45;102325.22;;;-9.84;100.00
68525;BME280;55524;51.380;13.372;2022-12-18T01:07:12;102330.94;;;-9.98;100.00
68525;BME280;55524;51.380;13.372;2022-12-18T01:09:47;102333.00;;;-10.16;100.00
68525;BME280;55524;51.380;13.372;2022-12-18T01:12:34;102344.13;;;-10.16;100.00
68525;BME280;55524;51.380;13.372;2022-12-18T01:15:09;102347.91;;;-10.10;100.00
68525;BME280;55524;51.380;13.372;2022-12-18T01:17:39;102352.66;;;-10.15;100.00
68525;BME280;55524;51.380;13.372;2022-12-18T01:20:15;102358.78;;;-10.25;100.00
68525;BME280;55524;51.380;13.372;2022-12-18T01:22:50;102351.16;;;-10.35;100.00
68525;BME280;55524;51.380;13.372;2022-12-18T01:25:25;102353.31;;;-10.51;100.00
68525;BME280;55524;51.380;13.372;2022-12-18T01:27:58;102348.56;;;-10.47;100.00
68525;BME280;55524;51.380;13.372;2022-12-18T01:30:44;102347.06;;;-10.55;100.00
68525;BME280;55524;51.380;13.372;2022-12-18T01:33:31;102347.63;;;-10.69;100.00
68525;BME280;55524;51.380;13.372;2022-12-18T01:35:57;102357.66;;;-10.82;100.00
68525;BME280;55524;51.380;13.372;2022-12-18T01:38:26;102359.84;;;-10.87;100.00
68525;BME280;55524;51.380;13.372;2022-12-18T01:41:00;102352.28;;;-10.85;100.00
68525;BME280;55524;51.380;13.372;2022-12-18T01:43:46;102352.22;;;-10.97;100.00
68525;BME280;55524;51.380;13.372;2022-12-18T01:46:56;102351.69;;;-10.93;100.00
68525;BME280;55524;51.380;13.372;2022-12-18T01:49:25;102356.69;;;-10.95;100.00
68525;BME280;55524;51.380;13.372;2022-12-18T01:51:55;102346.75;;;-11.02;100.00
68525;BME280;55524;51.380;13.372;2022-12-18T01:54:42;102346.38;;;-11.06;100.00
68525;BME280;55524;51.380;13.372;2022-12-18T01:57:08;102353.75;;;-10.99;100.00
68525;BME280;55524;51.380;13.372;2022-12-18T01:59:53;102346.56;;;-10.93;100.00
68525;BME280;55524;51.380;13.372;2022-12-18T02:02:40;102341.25;;;-10.96;100.00
68525;BME280;55524;51.380;13.372;2022-12-18T02:05:32;102344.47;;;-11.09;100.00
68525;BME280;55524;51.380;13.372;2022-12-18T02:19:20;102360.13;;;-11.67;100.00
68525;BME280;55524;51.380;13.372;2022-12-18T02:22:24;102354.91;;;-11.79;100.00
68525;BME280;55524;51.380;13.372;2022-12-18T02:28:34;102366.38;;;-11.84;100.00
68525;BME280;55524;51.380;13.372;2022-12-18T02:31:21;102370.59;;;-12.05;100.00
68525;BME280;55524;51.380;13.372;2022-12-18T02:33:58;102377.31;;;-12.16;100.00
68525;BME280;55524;51.380;13.372;2022-12-18T02:36:31;102372.47;;;-12.23;100.00
68525;BME280;55524;51.380;13.372;2022-12-18T02:39:05;102378.09;;;-12.27;100.00
68525;BME280;55524;51.380;13.372;2022-12-18T02:41:45;102382.66;;;-12.23;100.00
68525;BME280;55524;51.380;13.372;2022-12-18T02:44:34;102396.81;;;-12.16;100.00
68525;BME280;55524;51.380;13.372;2022-12-18T02:47:23;102385.38;;;-12.11;100.00
68525;BME280;55524;51.380;13.372;2022-12-18T03:04:30;102381.38;;;-12.28;100.00
68525;BME280;55524;51.380;13.372;2022-12-18T03:07:23;102380.09;;;-12.33;100.00
68525;BME280;55524;51.380;13.372;2022-12-18T03:09:51;102389.44;;;-12.23;100.00
68525;BME280;55524;51.380;13.372;2022-12-18T03:12:49;102392.59;;;-12.26;100.00
68525;BME280;55524;51.380;13.372;2022-12-18T03:15:42;102392.78;;;-12.43;100.00
68525;BME280;55524;51.380;13.372;2022-12-18T03:18:45;102393.25;;;-12.57;100.00
68525;BME280;55524;51.380;13.372;2022-12-18T03:21:31;102395.31;;;-12.53;100.00
68525;BME280;55524;51.380;13.372;2022-12-18T03:24:22;102394.53;;;-12.52;100.00
68525;BME280;55524;51.380;13.372;2022-12-18T03:26:56;102395.09;;;-12.46;100.00
68525;BME280;55524;51.380;13.372;2022-12-18T03:29:52;102401.69;;;-12.48;100.00
68525;BME280;55524;51.380;13.372;2022-12-18T03:32:38;102397.72;;;-12.55;100.00
68525;BME280;55524;51.380;13.372;2022-12-18T03:35:11;102389.94;;;-12.56;100.00
68525;BME280;55524;51.380;13.372;2022-12-18T03:38:04;102393.28;;;-12.47;100.00
68525;BME280;55524;51.380;13.372;2022-12-18T03:44:08;102405.72;;;-12.60;100.00
68525;BME280;55524;51.380;13.372;2022-12-18T03:53:25;102410.00;;;-12.70;100.00
68525;BME280;55524;51.380;13.372;2022-12-18T03:55:50;102416.66;;;-12.61;100.00
68525;BME280;55524;51.380;13.372;2022-12-18T03:58:42;102420.69;;;-12.64;100.00
68525;BME280;55524;51.380;13.372;2022-12-18T04:01:35;102419.28;;;-12.70;100.00
68525;BME280;55524;51.380;13.372;2022-12-18T04:04:09;102416.75;;;-12.70;100.00
68525;BME280;55524;51.380;13.372;2022-12-18T04:06:55;102419.53;;;-12.67;100.00
68525;BME280;55524;51.380;13.372;2022-12-18T04:09:35;102435.44;;;-12.70;100.00
68525;BME280;55524;51.380;13.372;2022-12-18T04:12:09;102432.91;;;-12.70;100.00
68525;BME280;55524;51.380;13.372;2022-12-18T04:14:47;102436.16;;;-12.81;100.00
68525;BME280;55524;51.380;13.372;2022-12-18T04:17:21;102434.38;;;-12.82;100.00
68525;BME280;55524;51.380;13.372;2022-12-18T04:20:00;102431.06;;;-12.81;100.00
68525;BME280;55524;51.380;13.372;2022-12-18T04:22:49;102434.38;;;-12.82;100.00
68525;BME280;55524;51.380;13.372;2022-12-18T04:30:43;102418.31;;;-12.62;100.00
68525;BME280;55524;51.380;13.372;2022-12-18T04:33:20;102418.34;;;-12.52;100.00
68525;BME280;55524;51.380;13.372;2022-12-18T04:35:57;102419.78;;;-12.45;100.00
68525;BME280;55524;51.380;13.372;2022-12-18T04:38:35;102421.81;;;-12.41;100.00
68525;BME280;55524;51.380;13.372;2022-12-18T04:41:17;102420.31;;;-12.39;100.00
68525;BME280;55524;51.380;13.372;2022-12-18T04:43:51;102412.03;;;-12.36;100.00
68525;BME280;55524;51.380;13.372;2022-12-18T04:46:44;102422.38;;;-12.35;100.00
68525;BME280;55524;51.380;13.372;2022-12-18T04:49:31;102426.97;;;-12.31;100.00
68525;BME280;55524;51.380;13.372;2022-12-18T04:52:32;102433.28;;;-12.46;100.00
68525;BME280;55524;51.380;13.372;2022-12-18T04:58:13;102431.16;;;-12.90;100.00
68525;BME280;55524;51.380;13.372;2022-12-18T05:00:50;102425.50;;;-12.96;100.00
68525;BME280;55524;51.380;13.372;2022-12-18T05:03:29;102422.34;;;-13.12;100.00
68525;BME280;55524;51.380;13.372;2022-12-18T05:06:15;102413.16;;;-13.01;100.00
68525;BME280;55524;51.380;13.372;2022-12-18T05:08:51;102423.44;;;-12.81;100.00
68525;BME280;55524;51.380;13.372;2022-12-18T05:11:38;102432.81;;;-12.61;100.00
68525;BME280;55524;51.380;13.372;2022-12-18T05:14:07;102429.16;;;-12.54;100.00
68525;BME280;55524;51.380;13.372;2022-12-18T05:16:33;102436.66;;;-12.56;100.00
68525;BME280;55524;51.380;13.372;2022-12-18T05:19:02;102432.13;;;-12.40;100.00
68525;BME280;55524;51.380;13.372;2022-12-18T05:21:37;102424.97;;;-12.04;100.00
68525;BME280;55524;51.380;13.372;2022-12-18T05:24:13;102433.16;;;-11.78;100.00
68525;BME280;55524;51.380;13.372;2022-12-18T05:26:41;102439.66;;;-11.61;100.00
68525;BME280;55524;51.380;13.372;2022-12-18T05:29:28;102448.72;;;-11.34;100.00
68525;BME280;55524;51.380;13.372;2022-12-18T05:31:54;102453.84;;;-11.24;100.00
68525;BME280;55524;51.380;13.372;2022-12-18T05:34:21;102445.53;;;-11.11;100.00
68525;BME280;55524;51.380;13.372;2022-12-18T05:36:56;102435.69;;;-10.96;100.00
68525;BME280;55524;51.380;13.372;2022-12-18T05:39:25;102433.59;;;-10.90;100.00
68525;BME280;55524;51.380;13.372;2022-12-18T05:41:51;102429.91;;;-10.83;100.00
68525;BME280;55524;51.380;13.372;2022-12-18T05:44:38;102435.84;;;-10.62;100.00
68525;BME280;55524;51.380;13.372;2022-12-18T05:47:04;102428.16;;;-10.52;100.00
68525;BME280;55524;51.380;13.372;2022-12-18T05:49:39;102427.09;;;-10.44;100.00
68525;BME280;55524;51.380;13.372;2022-12-18T05:52:14;102425.53;;;-10.42;100.00
68525;BME280;55524;51.380;13.372;2022-12-18T05:54:43;102432.66;;;-10.38;100.00
68525;BME280;55524;51.380;13.372;2022-12-18T05:57:12;102430.47;;;-10.33;100.00
68525;BME280;55524;51.380;13.372;2022-12-18T05:59:44;102433.84;;;-10.23;100.00
68525;BME280;55524;51.380;13.372;2022-12-18T06:02:31;102440.09;;;-10.19;100.00
68525;BME280;55524;51.380;13.372;2022-12-18T06:04:57;102447.22;;;-10.15;100.00
68525;BME280;55524;51.380;13.372;2022-12-18T06:07:28;102451.81;;;-10.11;100.00
68525;BME280;55524;51.380;13.372;2022-12-18T06:10:24;102454.97;;;-10.03;100.00
68525;BME280;55524;51.380;13.372;2022-12-18T06:12:54;102459.16;;;-9.94;100.00
68525;BME280;55524;51.380;13.372;2022-12-18T06:15:26;102459.59;;;-9.87;100.00
68525;BME280;55524;51.380;13.372;2022-12-18T06:17:54;102464.19;;;-9.83;100.00
68525;BME280;55524;51.380;13.372;2022-12-18T06:20:27;102467.22;;;-9.77;100.00
68525;BME280;55524;51.380;13.372;2022-12-18T06:22:58;102456.81;;;-9.69;100.00
68525;BME280;55524;51.380;13.372;2022-12-18T06:25:42;102454.84;;;-9.61;100.00
68525;BME280;55524;51.380;13.372;2022-12-18T06:28:23;102456.31;;;-9.53;100.00
68525;BME280;55524;51.380;13.372;2022-12-18T06:31:10;102462.00;;;-9.45;100.00
68525;BME280;55524;51.380;13.372;2022-12-18T06:33:56;102467.47;;;-9.41;100.00
68525;BME280;55524;51.380;13.372;2022-12-18T06:36:22;102471.41;;;-9.34;100.00
68525;BME280;55524;51.380;13.372;2022-12-18T06:39:08;102464.16;;;-9.28;100.00
68525;BME280;55524;51.380;13.372;2022-12-18T06:41:43;102465.28;;;-9.24;100.00
68525;BME280;55524;51.380;13.372;2022-12-18T06:44:15;102478.56;;;-9.18;100.00
68525;BME280;55524;51.380;13.372;2022-12-18T06:46:59;102479.00;;;-9.12;100.00
68525;BME280;55524;51.380;13.372;2022-12-18T06:49:34;102476.13;;;-9.05;100.00
68525;BME280;55524;51.380;13.372;2022-12-18T06:52:08;102479.81;;;-9.01;100.00
68525;BME280;55524;51.380;13.372;2022-12-18T06:54:44;102481.03;;;-8.96;100.00
68525;BME280;55524;51.380;13.372;2022-12-18T06:57:13;102478.06;;;-8.90;100.00
68525;BME280;55524;51.380;13.372;2022-12-18T06:59:59;102489.63;;;-8.84;100.00
68525;BME280;55524;51.380;13.372;2022-12-18T07:02:25;102491.88;;;-8.77;100.00
68525;BME280;55524;51.380;13.372;2022-12-18T07:05:12;102488.28;;;-8.67;100.00
68525;BME280;55524;51.380;13.372;2022-12-18T07:07:47;102484.28;;;-8.63;100.00
68525;BME280;55524;51.380;13.372;2022-12-18T07:10:23;102487.41;;;-8.56;100.00
68525;BME280;55524;51.380;13.372;2022-12-18T07:13:01;102496.56;;;-8.48;100.00
68525;BME280;55524;51.380;13.372;2022-12-18T07:18:17;102486.09;;;-8.39;100.00
68525;BME280;55524;51.380;13.372;2022-12-18T07:21:14;102492.28;;;-8.35;100.00
68525;BME280;55524;51.380;13.372;2022-12-18T07:23:43;102500.31;;;-8.31;100.00
68525;BME280;55524;51.380;13.372;2022-12-18T07:26:20;102492.63;;;-8.31;100.00
68525;BME280;55524;51.380;13.372;2022-12-18T07:28:57;102491.63;;;-8.33;100.00
68525;BME280;55524;51.380;13.372;2022-12-18T07:31:29;102495.06;;;-8.32;100.00
68525;BME280;55524;51.380;13.372;2022-12-18T07:34:04;102495.94;;;-8.32;100.00
68525;BME280;55524;51.380;13.372;2022-12-18T07:36:39;102494.72;;;-8.25;100.00
68525;BME280;55524;51.380;13.372;2022-12-18T07:39:17;102503.09;;;-8.28;100.00
68525;BME280;55524;51.380;13.372;2022-12-18T07:41:46;102505.88;;;-8.25;100.00
68525;BME280;55524;51.380;13.372;2022-12-18T07:44:35;102511.56;;;-8.17;100.00
68525;BME280;55524;51.380;13.372;2022-12-18T07:47:04;102513.69;;;-8.23;100.00
68525;BME280;55524;51.380;13.372;2022-12-18T07:49:36;102527.63;;;-8.31;100.00
68525;BME280;55524;51.380;13.372;2022-12-18T07:52:23;102509.47;;;-8.34;100.00
68525;BME280;55524;51.380;13.372;2022-12-18T07:54:52;102505.09;;;-8.24;100.00
68525;BME280;55524;51.380;13.372;2022-12-18T07:57:38;102502.94;;;-7.94;100.00
68525;BME280;55524;51.380;13.372;2022-12-18T08:00:14;102504.03;;;-7.79;100.00
68525;BME280;55524;51.380;13.372;2022-12-18T08:03:15;102499.13;;;-7.76;100.00
68525;BME280;55524;51.380;13.372;2022-12-18T08:05:50;102501.38;;;-7.55;100.00
68525;BME280;55524;51.380;13.372;2022-12-18T08:08:29;102490.63;;;-7.50;100.00
68525;BME280;55524;51.380;13.372;2022-12-18T08:10:58;102492.75;;;-7.81;100.00
68525;BME280;55524;51.380;13.372;2022-12-18T08:13:31;102489.78;;;-7.87;100.00
68525;BME280;55524;51.380;13.372;2022-12-18T08:16:28;102504.50;;;-7.96;100.00
68525;BME280;55524;51.380;13.372;2022-12-18T08:19:04;102509.84;;;-7.93;100.00
68525;BME280;55524;51.380;13.372;2022-12-18T08:21:45;102517.66;;;-7.80;100.00
68525;BME280;55524;51.380;13.372;2022-12-18T08:24:53;102516.41;;;-7.85;100.00
68525;BME280;55524;51.380;13.372;2022-12-18T08:27:22;102525.00;;;-7.96;100.00
68525;BME280;55524;51.380;13.372;2022-12-18T08:30:00;102522.59;;;-8.06;100.00
68525;BME280;55524;51.380;13.372;2022-12-18T08:32:27;102521.91;;;-8.04;100.00
68525;BME280;55524;51.380;13.372;2022-12-18T08:35:34;102516.00;;;-8.03;100.00
68525;BME280;55524;51.380;13.372;2022-12-18T08:38:03;102522.81;;;-8.03;100.00
68525;BME280;55524;51.380;13.372;2022-12-18T08:40:38;102523.47;;;-8.06;100.00
68525;BME280;55524;51.380;13.372;2022-12-18T08:43:13;102518.66;;;-8.01;100.00
68525;BME280;55524;51.380;13.372;2022-12-18T08:46:01;102526.50;;;-8.00;100.00
68525;BME280;55524;51.380;13.372;2022-12-18T08:48:46;102523.22;;;-7.97;100.00
68525;BME280;55524;51.380;13.372;2022-12-18T08:51:39;102517.88;;;-8.00;100.00
68525;BME280;55524;51.380;13.372;2022-12-18T08:54:12;102520.91;;;-7.94;100.00
68525;BME280;55524;51.380;13.372;2022-12-18T08:56:48;102519.28;;;-7.80;100.00
68525;BME280;55524;51.380;13.372;2022-12-18T08:59:35;102530.56;;;-7.78;100.00
68525;BME280;55524;51.380;13.372;2022-12-18T09:02:02;102529.44;;;-7.70;100.00
68525;BME280;55524;51.380;13.372;2022-12-18T09:04:37;102533.66;;;-7.71;100.00
68525;BME280;55524;51.380;13.372;2022-12-18T09:07:12;102547.59;;;-7.55;100.00
68525;BME280;55524;51.380;13.372;2022-12-18T09:09:44;102547.59;;;-7.55;100.00
68525;BME280;55524;51.380;13.372;2022-12-18T09:12:34;102555.72;;;-7.61;100.00
68525;BME280;55524;51.380;13.372;2022-12-18T09:15:31;102556.84;;;-7.57;100.00
68525;BME280;55524;51.380;13.372;2022-12-18T09:18:22;102554.53;;;-7.41;100.00
68525;BME280;55524;51.380;13.372;2022-12-18T09:20:51;102549.72;;;-7.36;100.00
68525;BME280;55524;51.380;13.372;2022-12-18T09:23:22;102550.16;;;-7.55;100.00
68525;BME280;55524;51.380;13.372;2022-12-18T09:25:51;102556.41;;;-7.63;100.00
68525;BME280;55524;51.380;13.372;2022-12-18T09:28:46;102547.09;;;-7.50;100.00
68525;BME280;55524;51.380;13.372;2022-12-18T09:34:22;102538.06;;;-7.20;100.00
68525;BME280;55524;51.380;13.372;2022-12-18T09:37:09;102544.41;;;-7.14;100.00
68525;BME280;55524;51.380;13.372;2022-12-18T09:39:38;102561.00;;;-7.09;100.00
68525;BME280;55524;51.380;13.372;2022-12-18T09:42:25;102554.81;;;-7.50;100.00
68525;BME280;55524;51.380;13.372;2022-12-18T09:45:34;102541.34;;;-7.34;100.00
68525;BME280;55524;51.380;13.372;2022-12-18T09:48:04;102531.66;;;-7.38;100.00
68525;BME280;55524;51.380;13.372;2022-12-18T09:50:38;102538.75;;;-7.47;100.00
68525;BME280;55524;51.380;13.372;2022-12-18T09:53:15;102527.06;;;-7.30;100.00
68525;BME280;55524;51.380;13.372;2022-12-18T09:55:55;102524.22;;;-7.22;100.00
68525;BME280;55524;51.380;13.372;2022-12-18T09:58:30;102513.81;;;-7.11;100.00
68525;BME280;55524;51.380;13.372;2022-12-18T10:01:38;102510.00;;;-6.91;100.00
68525;BME280;55524;51.380;13.372;2022-12-18T10:04:08;102506.34;;;-6.95;100.00
68525;BME280;55524;51.380;13.372;2022-12-18T10:10:13;102483.72;;;-6.74;100.00
68525;BME280;55524;51.380;13.372;2022-12-18T10:12:55;102471.97;;;-6.57;100.00
68525;BME280;55524;51.380;13.372;2022-12-18T10:25:04;102462.28;;;-6.61;100.00
68525;BME280;55524;51.380;13.372;2022-12-18T10:27:35;102457.63;;;-6.67;100.00
68525;BME280;55524;51.380;13.372;2022-12-18T10:30:23;102456.88;;;-6.53;100.00
68525;BME280;55524;51.380;13.372;2022-12-18T10:32:53;102448.66;;;-6.47;100.00
68525;BME280;55524;51.380;13.372;2022-12-18T10:38:22;102450.31;;;-6.34;100.00
68525;BME280;55524;51.380;13.372;2022-12-18T10:47:06;102445.53;;;-6.15;100.00
68525;BME280;55524;51.380;13.372;2022-12-18T10:49:49;102443.34;;;-6.09;100.00
68525;BME280;55524;51.380;13.372;2022-12-18T10:52:27;102449.38;;;-6.08;100.00
68525;BME280;55524;51.380;13.372;2022-12-18T10:55:03;102437.13;;;-6.12;100.00
68525;BME280;55524;51.380;13.372;2022-12-18T10:57:33;102436.72;;;-6.05;100.00
68525;BME280;55524;51.380;13.372;2022-12-18T11:02:59;102425.38;;;-5.94;100.00
68525;BME280;55524;51.380;13.372;2022-12-18T11:06:01;102420.47;;;-6.04;100.00
68525;BME280;55524;51.380;13.372;2022-12-18T11:09:19;102418.91;;;-5.87;100.00
68525;BME280;55524;51.380;13.372;2022-12-18T11:11:55;102421.75;;;-5.83;100.00
68525;BME280;55524;51.380;13.372;2022-12-18T11:15:13;102416.09;;;-5.77;100.00
68525;BME280;55524;51.380;13.372;2022-12-18T11:17:39;102419.84;;;-5.72;100.00
68525;BME280;55524;51.380;13.372;2022-12-18T11:23:16;102419.78;;;-5.59;100.00
68525;BME280;55524;51.380;13.372;2022-12-18T11:26:06;102430.06;;;-5.59;100.00
68525;BME280;55524;51.380;13.372;2022-12-18T11:33:53;102416.44;;;-5.28;100.00
68525;BME280;55524;51.380;13.372;2022-12-18T11:36:25;102411.47;;;-5.40;100.00
68525;BME280;55524;51.380;13.372;2022-12-18T11:39:05;102409.34;;;-5.32;100.00
68525;BME280;55524;51.380;13.372;2022-12-18T11:42:05;102402.25;;;-5.22;100.00
68525;BME280;55524;51.380;13.372;2022-12-18T11:49:59;102410.16;;;-5.04;100.00
68525;BME280;55524;51.380;13.372;2022-12-18T11:52:52;102409.00;;;-4.94;100.00
68525;BME280;55524;51.380;13.372;2022-12-18T12:34:38;102434.56;;;-4.22;100.00
68525;BME280;55524;51.380;13.372;2022-12-18T12:40:34;102410.13;;;-4.12;100.00
68525;BME280;55524;51.380;13.372;2022-12-18T12:46:21;102402.00;;;-4.19;100.00
68525;BME280;55524;51.380;13.372;2022-12-18T12:49:01;102402.72;;;-4.22;100.00
68525;BME280;55524;51.380;13.372;2022-12-18T12:51:52;102395.84;;;-4.22;100.00
68525;BME280;55524;51.380;13.372;2022-12-18T12:54:36;102396.03;;;-4.18;100.00
68525;BME280;55524;51.380;13.372;2022-12-18T12:57:20;102395.56;;;-4.11;100.00
68525;BME280;55524;51.380;13.372;2022-12-18T13:11:46;102390.22;;;-4.14;100.00
68525;BME280;55524;51.380;13.372;2022-12-18T13:14:58;102387.16;;;-4.24;100.00
68525;BME280;55524;51.380;13.372;2022-12-18T13:17:37;102388.03;;;-4.23;100.00
68525;BME280;55524;51.380;13.372;2022-12-18T13:20:11;102396.31;;;-4.29;100.00
68525;BME280;55524;51.380;13.372;2022-12-18T13:22:48;102388.81;;;-4.24;100.00
68525;BME280;55524;51.380;13.372;2022-12-18T13:34:40;102387.66;;;-3.82;100.00
68525;BME280;55524;51.380;13.372;2022-12-18T13:37:41;102386.28;;;-3.75;100.00
68525;BME280;55524;51.380;13.372;2022-12-18T13:48:57;102385.84;;;-3.50;100.00
68525;BME280;55524;51.380;13.372;2022-12-18T13:51:52;102386.56;;;-3.36;100.00
68525;BME280;55524;51.380;13.372;2022-12-18T13:57:34;102390.25;;;-3.31;99.35
68525;BME280;55524;51.380;13.372;2022-12-18T14:03:15;102389.41;;;-3.64;98.45
68525;BME280;55524;51.380;13.372;2022-12-18T14:05:54;102380.06;;;-3.79;98.55
68525;BME280;55524;51.380;13.372;2022-12-18T14:08:38;102367.88;;;-3.98;99.23
68525;BME280;55524;51.380;13.372;2022-12-18T14:11:38;102372.16;;;-4.14;99.72
68525;BME280;55524;51.380;13.372;2022-12-18T14:14:31;102370.25;;;-4.33;100.00
68525;BME280;55524;51.380;13.372;2022-12-18T14:17:36;102381.44;;;-4.49;100.00
68525;BME280;55524;51.380;13.372;2022-12-18T14:20:39;102382.53;;;-4.60;100.00
68525;BME280;55524;51.380;13.372;2022-12-18T14:26:40;102368.47;;;-4.97;100.00
68525;BME280;55524;51.380;13.372;2022-12-18T14:29:30;102351.94;;;-5.00;100.00
68525;BME280;55524;51.380;13.372;2022-12-18T14:32:16;102356.56;;;-5.09;100.00
68525;BME280;55524;51.380;13.372;2022-12-18T14:35:12;102355.16;;;-5.19;100.00
68525;BME280;55524;51.380;13.372;2022-12-18T14:41:32;102368.50;;;-5.41;100.00
68525;BME280;55524;51.380;13.372;2022-12-18T14:44:22;102376.84;;;-5.45;100.00
68525;BME280;55524;51.380;13.372;2022-12-18T14:47:22;102376.66;;;-5.48;100.00
68525;BME280;55524;51.380;13.372;2022-12-18T14:50:11;102376.88;;;-5.58;100.00
68525;BME280;55524;51.380;13.372;2022-12-18T14:53:01;102364.38;;;-5.67;100.00
68525;BME280;55524;51.380;13.372;2022-12-18T14:55:51;102351.75;;;-5.77;100.00
68525;BME280;55524;51.380;13.372;2022-12-18T14:58:23;102353.06;;;-5.84;100.00
68525;BME280;55524;51.380;13.372;2022-12-18T15:01:06;102353.75;;;-5.86;100.00
68525;BME280;55524;51.380;13.372;2022-12-18T15:03:44;102366.19;;;-5.94;100.00
68525;BME280;55524;51.380;13.372;2022-12-18T15:09:25;102375.34;;;-5.99;100.00
68525;BME280;55524;51.380;13.372;2022-12-18T15:15:41;102364.06;;;-6.01;100.00
68525;BME280;55524;51.380;13.372;2022-12-18T15:20:59;102341.28;;;-6.23;100.00
68525;BME280;55524;51.380;13.372;2022-12-18T15:26:25;102341.34;;;-6.36;100.00
68525;BME280;55524;51.380;13.372;2022-12-18T15:29:15;102341.13;;;-6.39;100.00
68525;BME280;55524;51.380;13.372;2022-12-18T15:32:17;102340.47;;;-6.22;100.00
68525;BME280;55524;51.380;13.372;2022-12-18T15:34:53;102332.91;;;-6.34;100.00
68525;BME280;55524;51.380;13.372;2022-12-18T15:37:42;102342.81;;;-6.40;100.00
68525;BME280;55524;51.380;13.372;2022-12-18T15:40:24;102332.72;;;-6.37;100.00
68525;BME280;55524;51.380;13.372;2022-12-18T15:43:17;102332.00;;;-6.34;100.00
68525;BME280;55524;51.380;13.372;2022-12-18T15:46:12;102343.38;;;-6.31;100.00
68525;BME280;55524;51.380;13.372;2022-12-18T15:49:10;102346.34;;;-6.38;100.00
68525;BME280;55524;51.380;13.372;2022-12-18T15:52:13;102339.50;;;-6.52;100.00
68525;BME280;55524;51.380;13.372;2022-12-18T15:55:04;102337.31;;;-6.59;100.00
68525;BME280;55524;51.380;13.372;2022-12-18T15:57:53;102326.44;;;-6.55;100.00
68525;BME280;55524;51.380;13.372;2022-12-18T16:00:58;102325.31;;;-6.46;100.00
68525;BME280;55524;51.380;13.372;2022-12-18T16:03:48;102326.63;;;-6.52;100.00
68525;BME280;55524;51.380;13.372;2022-12-18T16:06:32;102323.47;;;-6.61;100.00
68525;BME280;55524;51.380;13.372;2022-12-18T16:08:58;102322.41;;;-6.65;100.00
68525;BME280;55524;51.380;13.372;2022-12-18T16:11:45;102331.00;;;-6.64;100.00
68525;BME280;55524;51.380;13.372;2022-12-18T16:17:00;102332.31;;;-6.71;100.00
68525;BME280;55524;51.380;13.372;2022-12-18T16:19:44;102331.13;;;-6.76;100.00
68525;BME280;55524;51.380;13.372;2022-12-18T16:22:25;102332.31;;;-6.84;100.00
68525;BME280;55524;51.380;13.372;2022-12-18T16:25:05;102337.56;;;-6.83;100.00
68525;BME280;55524;51.380;13.372;2022-12-18T16:27:46;102337.06;;;-6.90;100.00
68525;BME280;55524;51.380;13.372;2022-12-18T16:30:38;102328.56;;;-6.89;100.00
68525;BME280;55524;51.380;13.372;2022-12-18T16:33:31;102317.69;;;-6.99;100.00
68525;BME280;55524;51.380;13.372;2022-12-18T16:35:57;102315.53;;;-7.06;100.00
68525;BME280;55524;51.380;13.372;2022-12-18T16:38:26;102319.09;;;-7.04;100.00
68525;BME280;55524;51.380;13.372;2022-12-18T16:41:01;102305.84;;;-7.10;100.00
68525;BME280;55524;51.380;13.372;2022-12-18T16:43:55;102304.97;;;-7.24;100.00
68525;BME280;55524;51.380;13.372;2022-12-18T16:46:24;102299.13;;;-7.21;100.00
68525;BME280;55524;51.380;13.372;2022-12-18T16:49:00;102305.34;;;-7.18;100.00
68525;BME280;55524;51.380;13.372;2022-12-18T16:51:33;102314.25;;;-7.12;100.00
68525;BME280;55524;51.380;13.372;2022-12-18T16:54:20;102307.53;;;-7.10;100.00
68525;BME280;55524;51.380;13.372;2022-12-18T16:56:55;102310.91;;;-7.11;100.00
68525;BME280;55524;51.380;13.372;2022-12-18T16:59:22;102312.66;;;-7.10;100.00